Time;durP1;ratioP1;P1;durP2;ratioP2;P2;SDS_P1;SDS_P2;PMS_P1;PMS_P2;Temp;Humidity;BMP_temperature;BMP_pressure;BME280_temperature;BME280_humidity;BME280_pressure;Samples;Min_cycle;Max_cycle;Signal;HPM_P1;HPM_P2
2023/06/16 00:00:09;;;;;;;9.70;6.03;;;14.50;99.90;;;;;;5030018;28;20228;-78
2023/06/16 00:02:37;;;;;;;7.77;6.20;;;14.60;99.90;;;;;;5029983;28;20226;-78
2023/06/16 00:05:04;;;;;;;8.20;5.93;;;14.70;99.90;;;;;;5029547;28;20756;-78
2023/06/16 00:07:33;;;;;;;9.40;6.30;;;14.60;99.90;;;;;;5029624;28;20211;-78
2023/06/16 00:10:00;;;;;;;8.17;5.93;;;14.60;99.90;;;;;;5029916;28;20699;-78
2023/06/16 00:12:27;;;;;;;10.10;6.27;;;14.60;99.90;;;;;;5029298;28;20203;-78
2023/06/16 00:14:53;;;;;;;8.60;6.27;;;14.60;99.90;;;;;;5030009;28;20310;-78
2023/06/16 00:17:23;;;;;;;11.80;6.33;;;14.70;99.90;;;;;;5029532;28;20207;-78
2023/06/16 00:19:50;;;;;;;9.03;5.97;;;14.70;99.90;;;;;;5029865;28;20526;-78
2023/06/16 00:22:17;;;;;;;7.60;6.17;;;14.60;99.90;;;;;;5029889;28;20579;-78
2023/06/16 00:24:46;;;;;;;8.17;5.80;;;14.60;99.90;;;;;;5029999;28;20318;-78
2023/06/16 00:27:13;;;;;;;9.20;6.60;;;14.60;99.90;;;;;;5029608;28;20208;-78
2023/06/16 00:29:40;;;;;;;8.63;5.97;;;14.70;99.90;;;;;;5029431;28;20671;-78
2023/06/16 00:32:07;;;;;;;10.30;5.83;;;14.70;99.90;;;;;;5029255;28;20268;-78
2023/06/16 00:34:34;;;;;;;11.55;6.18;;;14.60;99.90;;;;;;5029166;28;20235;-78
2023/06/16 00:37:01;;;;;;;8.10;6.07;;;14.70;99.90;;;;;;5029028;28;20569;-78
2023/06/16 00:39:28;;;;;;;9.73;6.20;;;14.70;99.90;;;;;;5029942;28;20520;-78
2023/06/16 00:41:56;;;;;;;9.80;6.20;;;14.60;99.90;;;;;;5025826;28;20571;-78
2023/06/16 00:44:23;;;;;;;9.27;6.23;;;14.60;99.90;;;;;;5029893;28;20222;-78
2023/06/16 00:46:50;;;;;;;12.20;6.20;;;14.60;99.90;;;;;;5029127;28;20211;-78
2023/06/16 00:49:17;;;;;;;9.30;5.80;;;14.60;99.90;;;;;;5029826;28;20271;-78
2023/06/16 00:51:45;;;;;;;10.27;6.33;;;14.50;99.90;;;;;;5022151;28;20300;-78
2023/06/16 00:54:12;;;;;;;8.27;6.17;;;14.50;99.90;;;;;;5009352;28;20235;-78
2023/06/16 00:56:41;;;;;;;9.67;6.40;;;14.40;99.90;;;;;;5009654;28;20579;-78
2023/06/16 00:59:09;;;;;;;8.67;6.27;;;14.30;99.90;;;;;;5009646;28;20240;-78
2023/06/16 01:01:36;;;;;;;9.27;6.40;;;14.20;99.90;;;;;;5012625;28;20216;-78
2023/06/16 01:04:03;;;;;;;10.70;6.70;;;14.10;99.90;;;;;;5032074;28;20582;-78
2023/06/16 01:06:50;;;;;;;7.97;5.87;;;14.00;99.90;;;;;;5032230;28;20281;-78
2023/06/16 01:09:22;;;;;;;8.87;6.20;;;14.10;99.90;;;;;;5032450;28;20207;-78
2023/06/16 01:11:55;;;;;;;12.03;6.43;;;14.00;99.90;;;;;;5031945;28;20575;-78
2023/06/16 01:14:29;;;;;;;8.20;5.83;;;13.80;99.90;;;;;;5032010;28;20335;-78
2023/06/16 01:16:58;;;;;;;8.53;6.20;;;13.70;99.90;;;;;;5032010;28;20211;-78
2023/06/16 01:19:29;;;;;;;12.03;6.57;;;13.70;99.90;;;;;;5027630;28;20546;-78
2023/06/16 01:22:06;;;;;;;9.27;6.33;;;14.00;99.90;;;;;;5094842;27;20211;-78
2023/06/16 01:24:35;;;;;;;9.63;6.57;;;14.10;99.90;;;;;;5029683;28;20220;-78
2023/06/16 01:27:04;;;;;;;7.57;6.17;;;13.80;99.90;;;;;;5032632;28;20204;-78
2023/06/16 01:29:36;;;;;;;9.40;6.20;;;13.60;99.90;;;;;;5032747;28;20210;-78
2023/06/16 01:32:04;;;;;;;10.83;7.00;;;13.80;99.90;;;;;;5033671;28;20200;-78
2023/06/16 01:34:32;;;;;;;10.80;6.97;;;13.90;99.90;;;;;;5014172;28;20657;-78
2023/06/16 01:37:00;;;;;;;9.30;6.27;;;13.90;99.90;;;;;;5031478;28;20207;-78
2023/06/16 01:39:28;;;;;;;9.97;6.90;;;13.70;99.90;;;;;;5033195;28;20542;-78
2023/06/16 01:41:58;;;;;;;10.33;6.20;;;13.70;99.90;;;;;;5033228;28;20208;-78
2023/06/16 01:44:27;;;;;;;10.53;6.27;;;13.90;99.90;;;;;;5062525;27;20220;-78
2023/06/16 01:46:56;;;;;;;12.30;6.80;;;13.80;99.90;;;;;;5015933;28;20579;-78
2023/06/16 01:49:23;;;;;;;12.47;6.50;;;13.80;99.90;;;;;;5020954;28;20585;-78
2023/06/16 01:51:50;;;;;;;9.30;5.90;;;13.70;99.90;;;;;;5022590;28;20204;-78
2023/06/16 01:54:17;;;;;;;8.83;6.37;;;13.70;99.90;;;;;;5013617;28;20228;-78
2023/06/16 01:56:44;;;;;;;9.10;6.67;;;13.60;99.90;;;;;;5013203;28;20196;-78
2023/06/16 01:59:13;;;;;;;11.43;6.47;;;13.90;99.90;;;;;;5070627;27;20203;-79
2023/06/16 02:01:43;;;;;;;8.90;6.43;;;13.90;99.90;;;;;;5033283;28;20212;-79
2023/06/16 02:04:14;;;;;;;12.00;6.70;;;13.90;99.90;;;;;;5017006;28;20228;-78
2023/06/16 02:06:45;;;;;;;10.57;6.37;;;13.80;99.90;;;;;;5012830;28;20319;-78
2023/06/16 02:09:15;;;;;;;9.40;6.13;;;13.80;99.90;;;;;;5013051;28;20209;-78
2023/06/16 02:11:44;;;;;;;9.70;7.03;;;13.70;99.90;;;;;;5013457;28;20215;-78
2023/06/16 02:14:12;;;;;;;10.97;6.40;;;13.50;99.90;;;;;;5012858;28;20246;-78
2023/06/16 02:16:42;;;;;;;8.90;6.00;;;13.20;99.90;;;;;;5071205;27;20197;-78
2023/06/16 02:19:09;;;;;;;8.53;6.23;;;13.40;99.90;;;;;;5024325;28;20208;-78
2023/06/16 02:21:37;;;;;;;10.00;5.90;;;13.60;99.90;;;;;;5040394;27;20256;-78
2023/06/16 02:24:04;;;;;;;9.10;6.47;;;13.60;99.90;;;;;;5026020;28;20249;-79
2023/06/16 02:26:31;;;;;;;9.63;6.33;;;13.70;99.90;;;;;;5020980;28;20302;-79
2023/06/16 02:28:58;;;;;;;9.33;6.40;;;13.60;99.90;;;;;;5032082;28;20302;-78
2023/06/16 02:31:27;;;;;;;11.03;6.57;;;13.60;99.90;;;;;;5033053;28;20545;-78
2023/06/16 02:33:54;;;;;;;11.77;7.23;;;13.70;99.90;;;;;;5032455;28;20224;-78
2023/06/16 02:36:21;;;;;;;15.07;6.67;;;13.60;99.90;;;;;;5032605;28;20212;-78
2023/06/16 02:38:48;;;;;;;9.27;6.23;;;13.60;99.90;;;;;;5032492;28;20208;-79
2023/06/16 02:41:15;;;;;;;11.57;7.17;;;13.60;99.90;;;;;;5026293;27;20649;-78
2023/06/16 02:43:42;;;;;;;9.40;6.60;;;13.60;99.90;;;;;;5022271;28;20224;-78
2023/06/16 02:46:08;;;;;;;11.00;6.27;;;13.50;99.90;;;;;;5028216;28;20204;-78
2023/06/16 02:48:37;;;;;;;11.23;6.87;;;13.40;99.90;;;;;;5012739;28;20299;-78
2023/06/16 02:51:03;;;;;;;9.43;6.50;;;13.40;99.90;;;;;;5012908;28;20218;-78
2023/06/16 02:53:30;;;;;;;9.67;6.03;;;13.60;99.90;;;;;;5011754;28;20740;-78
2023/06/16 02:55:58;;;;;;;11.60;6.53;;;13.50;99.90;;;;;;5010356;28;20580;-78
2023/06/16 02:58:26;;;;;;;12.33;6.70;;;13.60;99.90;;;;;;5030910;28;20227;-79
2023/06/16 03:00:53;;;;;;;8.77;5.93;;;13.50;99.90;;;;;;5032351;28;20204;-78
2023/06/16 03:03:20;;;;;;;9.77;6.13;;;13.50;99.90;;;;;;5032805;28;20203;-78
2023/06/16 03:05:48;;;;;;;12.40;6.57;;;13.60;99.90;;;;;;5032653;28;20208;-79
2023/06/16 03:08:15;;;;;;;10.00;6.47;;;13.60;99.90;;;;;;5032328;28;20207;-78
2023/06/16 03:10:42;;;;;;;9.33;6.10;;;13.60;99.90;;;;;;5031857;28;20547;-78
2023/06/16 03:13:09;;;;;;;8.40;6.00;;;13.60;99.90;;;;;;5031684;28;20204;-78
2023/06/16 03:15:36;;;;;;;9.40;6.30;;;13.60;99.90;;;;;;5030956;28;20695;-78
2023/06/16 03:18:03;;;;;;;11.00;6.47;;;13.80;99.90;;;;;;5031693;28;20204;-78
2023/06/16 03:20:30;;;;;;;10.13;6.77;;;13.80;99.90;;;;;;5032182;28;20302;-78
2023/06/16 03:22:58;;;;;;;9.97;6.37;;;13.80;99.90;;;;;;5030669;28;20235;-78
2023/06/16 03:25:25;;;;;;;14.90;7.00;;;13.90;99.90;;;;;;5029277;28;20220;-78
2023/06/16 03:27:51;;;;;;;9.10;6.43;;;13.90;99.90;;;;;;5030925;28;20547;-81
2023/06/16 03:30:18;;;;;;;9.73;6.37;;;13.90;99.90;;;;;;5031522;28;20208;-79
2023/06/16 03:32:45;;;;;;;15.40;6.30;;;14.00;99.90;;;;;;5031355;28;20302;-79
2023/06/16 03:35:13;;;;;;;9.60;6.30;;;13.90;99.90;;;;;;5030882;28;20232;-80
2023/06/16 03:37:40;;;;;;;10.70;6.73;;;13.90;99.90;;;;;;5032631;28;20290;-79
2023/06/16 03:40:09;;;;;;;9.50;6.63;;;13.90;99.90;;;;;;5033087;28;20210;-79
2023/06/16 03:42:37;;;;;;;10.10;6.27;;;13.80;99.90;;;;;;5033402;28;20200;-79
2023/06/16 03:45:04;;;;;;;10.50;7.13;;;13.90;99.90;;;;;;5033536;28;20566;-79
2023/06/16 03:47:31;;;;;;;13.27;6.63;;;13.90;99.90;;;;;;5032025;28;20218;-79
2023/06/16 03:49:59;;;;;;;10.23;6.43;;;14.00;99.90;;;;;;5033218;28;20739;-79
2023/06/16 03:52:26;;;;;;;12.43;6.77;;;13.90;99.90;;;;;;5032185;28;20207;-79
2023/06/16 03:54:53;;;;;;;9.57;6.17;;;14.00;99.90;;;;;;5032736;28;20235;-79
2023/06/16 03:57:21;;;;;;;12.17;6.57;;;14.00;99.90;;;;;;5031925;28;20206;-79
2023/06/16 03:59:48;;;;;;;11.97;7.23;;;14.00;99.90;;;;;;5033125;28;20204;-80
2023/06/16 04:02:16;;;;;;;12.17;6.97;;;14.20;99.90;;;;;;5033088;28;20215;-80
2023/06/16 04:04:45;;;;;;;11.47;7.57;;;14.10;99.90;;;;;;5033246;28;20594;-80
2023/06/16 04:07:12;;;;;;;15.93;9.47;;;14.10;99.90;;;;;;5032796;28;20211;-80
2023/06/16 04:09:39;;;;;;;10.57;7.17;;;14.10;99.90;;;;;;5033068;28;20208;-80
2023/06/16 04:12:07;;;;;;;11.33;7.00;;;14.00;99.90;;;;;;5033198;28;20207;-80
2023/06/16 04:14:35;;;;;;;9.97;6.57;;;14.10;99.90;;;;;;5032922;28;20310;-80
2023/06/16 04:17:02;;;;;;;11.53;6.43;;;14.10;99.90;;;;;;5032931;28;20215;-80
2023/06/16 04:19:28;;;;;;;10.90;6.50;;;14.10;99.90;;;;;;5047445;28;20291;-81
2023/06/16 04:21:57;;;;;;;11.93;6.77;;;14.20;99.90;;;;;;5051622;28;20200;-81
2023/06/16 04:24:24;;;;;;;10.27;6.87;;;14.10;99.90;;;;;;5057368;27;20220;-80
2023/06/16 04:26:52;;;;;;;11.77;6.70;;;14.20;99.90;;;;;;5017147;28;20212;-80
2023/06/16 04:29:20;;;;;;;9.83;6.73;;;14.30;99.90;;;;;;5017563;28;20215;-80
2023/06/16 04:31:50;;;;;;;11.33;7.10;;;14.30;99.90;;;;;;5018562;28;20287;-80
2023/06/16 04:34:18;;;;;;;14.00;9.53;;;14.30;99.90;;;;;;5023424;28;20748;-80
2023/06/16 04:36:45;;;;;;;16.90;9.70;;;14.40;99.90;;;;;;5024115;27;20286;-81
2023/06/16 04:39:12;;;;;;;11.60;6.70;;;14.50;99.90;;;;;;5038602;27;20633;-80
2023/06/16 04:41:39;;;;;;;12.70;6.73;;;14.50;99.90;;;;;;5091714;27;20206;-79
2023/06/16 04:44:06;;;;;;;10.63;7.17;;;14.30;99.90;;;;;;5043339;27;20232;-81
2023/06/16 04:46:33;;;;;;;10.03;6.30;;;14.40;99.90;;;;;;5027502;28;20612;-79
2023/06/16 04:49:01;;;;;;;9.97;6.57;;;14.40;99.90;;;;;;5027356;28;20240;-79
2023/06/16 04:51:28;;;;;;;14.53;7.23;;;14.40;99.90;;;;;;5037900;27;20257;-81
2023/06/16 04:53:55;;;;;;;11.00;7.17;;;14.40;99.90;;;;;;5064407;27;20216;-78
2023/06/16 04:56:22;;;;;;;14.63;7.10;;;14.40;99.90;;;;;;5019864;28;20236;-78
2023/06/16 04:58:48;;;;;;;13.33;6.73;;;14.40;99.90;;;;;;5018442;28;20204;-78
2023/06/16 05:01:15;;;;;;;14.17;7.27;;;14.50;99.90;;;;;;5026720;28;20222;-78
2023/06/16 05:03:42;;;;;;;13.17;6.97;;;14.50;99.90;;;;;;5015033;28;20232;-79
2023/06/16 05:06:10;;;;;;;12.40;7.37;;;14.60;99.90;;;;;;5048275;27;20196;-81
2023/06/16 05:08:37;;;;;;;11.82;6.72;;;14.60;99.90;;;;;;5023622;28;20215;-79
2023/06/16 05:11:04;;;;;;;10.87;6.73;;;14.70;99.90;;;;;;5061293;27;20202;-79
2023/06/16 05:13:30;;;;;;;11.63;7.67;;;14.60;99.90;;;;;;5031832;28;20223;-82
2023/06/16 05:15:57;;;;;;;13.30;7.25;;;14.70;99.90;;;;;;5039000;27;20255;-79
2023/06/16 05:18:24;;;;;;;11.43;8.00;;;14.70;99.90;;;;;;5021456;28;20213;-79
2023/06/16 05:20:51;;;;;;;11.23;7.70;;;14.80;99.90;;;;;;5035461;27;20200;-79
2023/06/16 05:23:19;;;;;;;14.43;7.63;;;14.90;99.90;;;;;;5020652;28;20624;-79
2023/06/16 05:25:46;;;;;;;13.75;7.40;;;14.90;99.90;;;;;;5022587;27;20197;-79
2023/06/16 05:28:12;;;;;;;10.57;7.63;;;15.00;99.90;;;;;;5019259;28;20211;-79
2023/06/16 05:30:39;;;;;;;11.85;7.03;;;15.10;99.90;;;;;;5028794;28;20225;-80
2023/06/16 05:33:06;;;;;;;14.65;7.90;;;14.90;99.90;;;;;;5015882;28;20225;-79
2023/06/16 05:35:33;;;;;;;11.30;7.00;;;15.10;99.90;;;;;;5019074;28;20236;-78
2023/06/16 05:38:00;;;;;;;10.90;8.35;;;15.20;99.90;;;;;;5023336;28;20201;-80
2023/06/16 05:40:28;;;;;;;11.90;7.32;;;15.10;99.90;;;;;;5044043;27;20200;-79
2023/06/16 05:42:55;;;;;;;10.85;7.32;;;15.10;99.90;;;;;;5028024;28;20216;-79
2023/06/16 05:45:21;;;;;;;16.55;11.30;;;15.30;99.90;;;;;;5070852;27;20279;-79
2023/06/16 05:47:49;;;;;;;13.07;8.48;;;15.30;99.90;;;;;;5031298;28;20673;-79
2023/06/16 05:50:16;;;;;;;12.00;8.15;;;15.40;99.90;;;;;;5028887;28;20201;-80
2023/06/16 05:52:43;;;;;;;13.38;8.07;;;15.50;99.90;;;;;;5025180;28;20209;-79
2023/06/16 05:55:10;;;;;;;11.70;7.78;;;15.50;99.90;;;;;;5054302;27;20228;-79
2023/06/16 05:57:38;;;;;;;10.43;7.55;;;15.60;99.90;;;;;;5027829;28;20288;-79
2023/06/16 06:00:06;;;;;;;11.25;7.50;;;15.60;99.90;;;;;;5049672;27;20656;-80
2023/06/16 06:02:33;;;;;;;12.73;8.88;;;15.50;99.90;;;;;;5027793;28;20216;-80
2023/06/16 06:05:00;;;;;;;11.68;8.43;;;15.50;99.90;;;;;;5039127;27;20226;-79
2023/06/16 06:07:27;;;;;;;12.82;7.68;;;15.40;99.90;;;;;;5037958;27;20227;-80
2023/06/16 06:09:54;;;;;;;11.98;7.88;;;15.50;99.90;;;;;;5091496;27;20200;-80
2023/06/16 06:12:22;;;;;;;10.27;8.23;;;15.60;99.90;;;;;;5019820;28;20212;-79
2023/06/16 06:14:50;;;;;;;11.07;7.40;;;15.60;99.90;;;;;;5036559;27;20233;-80
2023/06/16 06:17:17;;;;;;;13.50;8.43;;;15.50;99.90;;;;;;5024589;28;20206;-81
2023/06/16 06:19:44;;;;;;;11.15;7.80;;;15.70;99.90;;;;;;5030847;27;20200;-79
2023/06/16 06:22:10;;;;;;;11.63;8.23;;;15.80;99.90;;;;;;5026168;27;20630;-80
2023/06/16 06:24:37;;;;;;;11.55;8.82;;;15.90;99.90;;;;;;5025500;28;20224;-80
2023/06/16 06:27:05;;;;;;;11.73;8.18;;;15.90;99.90;;;;;;5035683;28;20304;-80
2023/06/16 06:29:32;;;;;;;14.48;9.35;;;16.00;99.90;;;;;;5024011;28;20560;-80
2023/06/16 06:32:00;;;;;;;12.02;9.02;;;16.00;99.90;;;;;;5027152;28;20598;-81
2023/06/16 06:34:27;;;;;;;11.25;8.70;;;16.10;99.90;;;;;;5034662;28;20310;-80
2023/06/16 06:36:54;;;;;;;10.55;8.07;;;16.10;99.90;;;;;;5034247;28;20204;-80
2023/06/16 06:39:21;;;;;;;13.40;9.15;;;16.20;99.90;;;;;;5058097;27;20278;-80
2023/06/16 06:41:48;;;;;;;15.05;9.23;;;16.30;99.90;;;;;;5033264;28;20206;-80
2023/06/16 06:44:15;;;;;;;15.07;8.73;;;16.30;99.90;;;;;;5035330;28;20232;-80
2023/06/16 06:46:42;;;;;;;11.55;8.25;;;16.50;99.90;;;;;;5035651;28;20196;-79
2023/06/16 06:49:10;;;;;;;13.02;9.07;;;16.80;99.90;;;;;;5015312;28;20219;-80
2023/06/16 06:51:37;;;;;;;14.57;9.45;;;16.70;99.90;;;;;;5016467;28;20546;-80
2023/06/16 06:54:04;;;;;;;14.40;9.25;;;16.70;99.90;;;;;;5017280;28;20220;-80
2023/06/16 06:56:31;;;;;;;15.45;9.65;;;16.60;99.90;;;;;;5021180;28;20228;-79
2023/06/16 06:58:58;;;;;;;13.82;9.73;;;16.80;99.90;;;;;;5019173;28;20214;-80
2023/06/16 07:01:24;;;;;;;16.65;10.65;;;16.90;99.90;;;;;;5018244;28;20212;-80
2023/06/16 07:03:51;;;;;;;15.48;10.32;;;17.00;99.90;;;;;;5035524;28;20699;-79
2023/06/16 07:06:20;;;;;;;13.93;9.48;;;17.00;99.90;;;;;;5032526;27;20208;-80
2023/06/16 07:08:47;;;;;;;12.95;9.02;;;17.00;99.90;;;;;;5029528;28;20210;-79
2023/06/16 07:11:14;;;;;;;12.32;9.10;;;16.80;99.90;;;;;;5032083;28;20264;-80
2023/06/16 07:13:41;;;;;;;13.90;9.13;;;16.80;99.90;;;;;;5019288;28;20224;-79
2023/06/16 07:16:08;;;;;;;13.55;9.13;;;16.90;99.90;;;;;;5027421;28;20220;-80
2023/06/16 07:18:35;;;;;;;13.38;9.15;;;16.80;99.90;;;;;;5027241;28;20288;-80
2023/06/16 07:21:02;;;;;;;13.93;9.85;;;16.80;99.90;;;;;;5036352;28;20212;-80
2023/06/16 07:23:30;;;;;;;13.95;8.80;;;17.00;99.90;;;;;;5020302;28;20220;-80
2023/06/16 07:25:57;;;;;;;13.95;9.52;;;17.00;99.90;;;;;;5028874;28;20267;-80
2023/06/16 07:28:24;;;;;;;14.63;9.70;;;16.90;99.90;;;;;;5039833;28;20204;-80
2023/06/16 07:30:52;;;;;;;14.23;9.80;;;17.00;99.90;;;;;;5024434;28;20661;-80
2023/06/16 07:33:19;;;;;;;13.48;9.10;;;17.00;99.90;;;;;;5031067;28;20204;-80
2023/06/16 07:35:45;;;;;;;13.98;8.43;;;17.00;99.90;;;;;;5055735;27;20222;-80
2023/06/16 07:38:12;;;;;;;11.82;8.77;;;17.10;99.90;;;;;;5039475;28;20267;-80
2023/06/16 07:40:41;;;;;;;12.60;8.80;;;17.20;99.90;;;;;;5037132;28;20641;-80
2023/06/16 07:43:08;;;;;;;11.48;8.88;;;17.30;99.90;;;;;;5021625;28;20200;-80
2023/06/16 07:45:35;;;;;;;13.48;9.52;;;17.20;99.90;;;;;;5033183;28;20210;-80
2023/06/16 07:48:02;;;;;;;14.00;8.75;;;17.30;99.90;;;;;;5027601;28;20196;-80
2023/06/16 07:50:28;;;;;;;13.35;9.10;;;17.40;99.90;;;;;;5023264;28;20232;-80
2023/06/16 07:52:55;;;;;;;12.30;8.30;;;17.40;99.90;;;;;;5032475;28;20249;-80
2023/06/16 07:55:22;;;;;;;29.02;21.23;;;17.60;99.90;;;;;;5036380;28;20280;-80
2023/06/16 07:57:50;;;;;;;14.85;10.55;;;17.60;99.90;;;;;;5037324;27;20294;-80
2023/06/16 08:00:19;;;;;;;12.70;8.77;;;17.50;99.90;;;;;;5022759;28;20231;-81
2023/06/16 08:02:46;;;;;;;13.38;9.07;;;17.60;99.90;;;;;;5035958;28;20246;-82
2023/06/16 08:05:16;;;;;;;13.55;9.43;;;17.70;99.90;;;;;;5035609;28;20243;-81
2023/06/16 08:07:43;;;;;;;13.90;8.38;;;17.70;99.90;;;;;;5035271;28;20219;-81
2023/06/16 08:10:11;;;;;;;11.13;8.55;;;17.60;99.90;;;;;;5016009;28;20204;-80
2023/06/16 08:12:38;;;;;;;13.13;9.38;;;17.80;99.90;;;;;;5016943;28;20539;-81
2023/06/16 08:15:07;;;;;;;10.98;7.63;;;17.80;99.90;;;;;;5078521;27;20219;-81
2023/06/16 08:17:34;;;;;;;8.95;7.38;;;18.10;99.90;;;;;;5139763;27;20208;-81
2023/06/16 08:20:01;;;;;;;9.95;7.43;;;18.30;99.90;;;;;;5058231;28;20575;-81
2023/06/16 08:22:28;;;;;;;13.73;7.88;;;18.40;99.90;;;;;;5035496;28;20233;-81
2023/06/16 08:24:55;;;;;;;11.52;7.38;;;18.50;99.90;;;;;;5036577;28;20234;-81
2023/06/16 08:27:22;;;;;;;10.00;6.93;;;18.50;99.90;;;;;;5036013;28;20684;-81
2023/06/16 08:29:50;;;;;;;11.25;7.75;;;18.90;99.90;;;;;;5037131;28;20210;-81
2023/06/16 08:32:18;;;;;;;8.88;6.75;;;19.10;99.90;;;;;;5039070;28;20200;-81
2023/06/16 08:34:45;;;;;;;9.30;6.60;;;19.10;99.90;;;;;;5037902;28;20319;-81
2023/06/16 08:37:12;;;;;;;9.50;6.30;;;19.30;99.90;;;;;;5037305;28;20233;-81
2023/06/16 08:39:39;;;;;;;13.00;7.13;;;19.50;99.90;;;;;;5018690;28;20700;-81
2023/06/16 08:42:06;;;;;;;9.43;7.05;;;19.50;99.90;;;;;;5017408;28;20276;-81
2023/06/16 08:44:35;;;;;;;9.25;6.75;;;19.60;99.90;;;;;;5036581;28;20314;-80
2023/06/16 08:47:03;;;;;;;9.13;6.40;;;19.80;99.90;;;;;;5037183;28;20214;-81
2023/06/16 08:49:32;;;;;;;8.38;6.10;;;20.10;99.90;;;;;;5036626;28;20208;-81
2023/06/16 08:52:02;;;;;;;10.10;5.90;;;20.40;99.90;;;;;;5029397;28;20231;-81
2023/06/16 08:54:35;;;;;;;7.40;5.25;;;20.50;99.90;;;;;;5037568;28;20255;-82
2023/06/16 08:57:06;;;;;;;7.82;5.80;;;20.70;99.90;;;;;;5037538;28;20208;-81
2023/06/16 08:59:34;;;;;;;8.30;5.55;;;20.90;99.90;;;;;;5018928;28;20189;-81
2023/06/16 09:02:01;;;;;;;8.98;5.28;;;21.20;99.90;;;;;;5017253;28;20226;-81
2023/06/16 09:04:32;;;;;;;8.20;5.43;;;21.20;99.90;;;;;;5018061;28;20231;-81
2023/06/16 09:07:00;;;;;;;6.43;5.50;;;21.10;99.90;;;;;;5018117;28;20192;-80
2023/06/16 09:09:27;;;;;;;6.75;4.90;;;20.90;99.90;;;;;;5015848;28;20204;-81
2023/06/16 09:12:05;;;;;;;5.88;4.45;;;21.00;99.90;;;;;;5016866;28;20244;-80
2023/06/16 09:14:33;;;;;;;5.07;4.57;;;21.20;99.90;;;;;;5048709;28;20307;-81
2023/06/16 09:17:01;;;;;;;5.90;4.68;;;21.10;99.90;;;;;;5116467;28;20678;-81
2023/06/16 09:19:28;;;;;;;6.30;4.65;;;21.40;99.90;;;;;;5036970;28;20755;-81
2023/06/16 09:21:56;;;;;;;7.55;5.32;;;21.60;99.90;;;;;;5037792;28;20216;-81
2023/06/16 09:24:28;;;;;;;7.93;4.95;;;21.30;99.90;;;;;;5040900;28;20219;-81
2023/06/16 09:26:59;;;;;;;7.50;4.82;;;21.80;99.90;;;;;;5041993;28;20210;-80
2023/06/16 09:29:28;;;;;;;7.55;5.50;;;22.20;99.90;;;;;;5034932;28;20212;-81
2023/06/16 09:32:06;;;;;;;6.72;5.00;;;22.50;99.90;;;;;;5037324;28;20204;-81
2023/06/16 09:34:33;;;;;;;6.10;4.82;;;22.80;99.90;;;;;;5040501;28;20233;-80
2023/06/16 09:37:00;;;;;;;9.23;5.13;;;22.60;99.90;;;;;;5038573;28;20231;-80
2023/06/16 09:39:28;;;;;;;7.28;4.95;;;22.70;99.90;;;;;;5019525;28;20231;-81
2023/06/16 09:41:56;;;;;;;8.32;5.70;;;23.50;99.90;;;;;;5021212;28;20218;-80
2023/06/16 09:44:24;;;;;;;10.63;5.03;;;23.50;99.90;;;;;;5021181;28;20222;-81
2023/06/16 09:46:51;;;;;;;6.40;5.50;;;23.70;99.90;;;;;;5068046;27;20189;-80
2023/06/16 09:49:22;;;;;;;8.95;5.25;;;23.70;99.90;;;;;;5077114;27;20229;-81
2023/06/16 09:51:53;;;;;;;6.38;4.85;;;24.10;99.90;;;;;;5036426;28;20652;-81
2023/06/16 09:54:21;;;;;;;8.50;5.15;;;24.10;99.90;;;;;;5041219;28;20699;-80
2023/06/16 09:56:50;;;;;;;8.15;5.05;;;24.50;99.90;;;;;;5040845;28;20585;-81
2023/06/16 09:59:17;;;;;;;6.80;4.93;;;24.60;99.90;;;;;;5039380;27;20237;-80
2023/06/16 10:01:47;;;;;;;6.47;4.88;;;25.30;99.90;;;;;;5039753;28;20215;-81
2023/06/16 10:04:16;;;;;;;8.13;5.03;;;25.40;99.90;;;;;;5039865;28;20231;-81
2023/06/16 10:06:48;;;;;;;6.55;5.55;;;25.30;1.00;;;;;;5039884;28;20309;-80
2023/06/16 10:09:18;;;;;;;8.93;5.30;;;25.40;1.00;;;;;;5039654;28;20215;-81
2023/06/16 10:11:49;;;;;;;5.97;5.00;;;25.70;99.90;;;;;;5040038;28;20268;-80
2023/06/16 10:14:19;;;;;;;6.00;5.32;;;25.70;52.10;;;;;;5040820;28;20230;-81
2023/06/16 10:16:50;;;;;;;7.35;5.60;;;25.00;1.00;;;;;;5040882;28;20247;-81
2023/06/16 10:19:20;;;;;;;6.88;5.47;;;25.50;1.00;;;;;;5040315;28;20211;-81
2023/06/16 10:21:47;;;;;;;7.68;5.85;;;25.60;99.90;;;;;;5039928;28;20210;-81
2023/06/16 10:24:15;;;;;;;6.45;5.40;;;24.80;1.00;;;;;;5040716;28;20230;-80
2023/06/16 10:26:43;;;;;;;6.43;5.78;;;25.60;1.00;;;;;;5040546;28;20219;-80
2023/06/16 10:29:16;;;;;;;6.22;5.50;;;25.00;1.00;;;;;;5040094;28;20203;-80
2023/06/16 10:31:44;;;;;;;6.47;5.75;;;25.10;1.00;;;;;;5040482;28;20263;-80
2023/06/16 10:34:18;;;;;;;7.10;6.22;;;25.20;1.00;;;;;;5038159;28;20579;-81
2023/06/16 10:36:45;;;;;;;7.00;5.50;;;25.20;99.90;;;;;;5040150;28;20207;-81
2023/06/16 10:39:13;;;;;;;7.43;5.68;;;25.10;99.90;;;;;;5038951;28;20202;-81
2023/06/16 10:41:51;;;;;;;7.80;6.07;;;25.50;99.90;;;;;;5039198;28;20204;-81
2023/06/16 10:44:30;;;;;;;6.43;5.68;;;25.50;99.90;;;;;;5039389;28;20231;-81
2023/06/16 10:47:36;;;;;;;6.82;5.53;;;25.50;99.90;;;;;;5038897;28;20284;-81
2023/06/16 10:50:04;;;;;;;6.13;5.53;;;25.90;99.90;;;;;;5039255;28;20203;-81
2023/06/16 10:52:35;;;;;;;6.80;5.28;;;26.10;1.00;;;;;;5039419;28;20207;-81
2023/06/16 10:55:18;;;;;;;9.23;6.00;;;25.90;1.00;;;;;;5039623;28;20224;-81
2023/06/16 10:57:46;;;;;;;9.35;5.78;;;25.30;99.90;;;;;;5039657;28;20211;-81
2023/06/16 11:00:16;;;;;;;8.15;6.03;;;25.20;1.00;;;;;;5038824;28;20204;-80
2023/06/16 11:02:49;;;;;;;8.20;6.28;;;24.30;1.00;;;;;;5038362;28;20258;-80
2023/06/16 11:05:22;;;;;;;8.02;6.70;;;24.10;1.00;;;;;;5030415;28;20248;-81
2023/06/16 11:08:13;;;;;;;9.13;6.75;;;23.90;1.00;;;;;;5018543;28;20244;-80
2023/06/16 11:10:51;;;;;;;7.95;6.70;;;23.70;99.90;;;;;;5018894;28;20204;-80
2023/06/16 11:13:19;;;;;;;8.50;6.07;;;23.80;99.90;;;;;;5018732;28;20600;-80
2023/06/16 11:15:47;;;;;;;7.85;6.97;;;24.00;1.00;;;;;;5017972;28;20208;-80
2023/06/16 11:18:17;;;;;;;8.93;6.93;;;24.20;1.00;;;;;;5019359;28;20204;-81
2023/06/16 11:20:44;;;;;;;9.13;6.00;;;24.40;1.00;;;;;;5018804;28;20222;-81
2023/06/16 11:23:11;;;;;;;7.35;6.35;;;24.70;1.00;;;;;;5019170;28;20608;-81
2023/06/16 11:25:38;;;;;;;8.65;7.30;;;24.50;1.00;;;;;;5019537;28;20208;-81
2023/06/16 11:28:05;;;;;;;6.68;6.07;;;24.30;99.90;;;;;;5019184;28;20288;-80
2023/06/16 11:30:36;;;;;;;8.00;7.13;;;24.50;1.00;;;;;;5018735;28;20208;-81
2023/06/16 11:33:04;;;;;;;8.63;6.68;;;24.50;1.00;;;;;;5018395;28;20211;-81
2023/06/16 11:35:31;;;;;;;9.45;6.75;;;24.70;99.90;;;;;;5053898;27;20259;-81
2023/06/16 11:37:58;;;;;;;7.50;6.80;;;25.00;1.00;;;;;;5027523;28;20216;-80
2023/06/16 11:40:26;;;;;;;8.52;6.55;;;24.90;1.00;;;;;;5019498;28;20212;-81
2023/06/16 11:42:55;;;;;;;8.00;6.60;;;24.60;99.90;;;;;;5018479;28;20215;-80
2023/06/16 11:45:22;;;;;;;7.78;6.30;;;24.70;99.90;;;;;;5018000;28;20240;-81
2023/06/16 11:47:49;;;;;;;8.35;5.85;;;25.10;1.00;;;;;;5018152;28;20204;-80
2023/06/16 11:50:18;;;;;;;8.98;6.22;;;25.20;1.00;;;;;;5018357;28;20219;-81
2023/06/16 11:52:45;;;;;;;11.32;6.28;;;25.20;99.90;;;;;;5019031;28;20204;-81
2023/06/16 11:55:12;;;;;;;8.15;5.90;;;25.80;99.90;;;;;;5018809;28;20228;-81
2023/06/16 11:57:40;;;;;;;8.13;5.80;;;25.70;99.90;;;;;;5017090;28;20259;-81
2023/06/16 12:00:09;;;;;;;7.28;6.55;;;26.00;1.00;;;;;;5018694;28;20313;-81
2023/06/16 12:02:37;;;;;;;6.53;5.60;;;25.80;1.00;;;;;;5019572;28;20212;-80
2023/06/16 12:05:07;;;;;;;7.30;6.05;;;25.80;1.00;;;;;;5019013;28;20251;-81
2023/06/16 12:07:36;;;;;;;8.35;5.82;;;26.00;1.00;;;;;;5018944;28;20204;-81
2023/06/16 12:10:04;;;;;;;9.55;6.28;;;26.10;99.90;;;;;;5053051;27;20189;-81
2023/06/16 12:12:31;;;;;;;9.00;6.07;;;25.60;84.80;;;;;;5018087;28;20575;-81
2023/06/16 12:14:59;;;;;;;7.10;5.72;;;25.50;99.90;;;;;;5029553;28;20234;-81
2023/06/16 12:17:26;;;;;;;7.18;6.18;;;25.10;1.00;;;;;;5029879;28;20220;-80
2023/06/16 12:19:54;;;;;;;7.38;6.07;;;24.80;63.30;;;;;;5031301;28;20271;-80
2023/06/16 12:22:22;;;;;;;9.15;7.53;;;25.20;1.00;;;;;;5018083;28;20215;-80
2023/06/16 12:24:50;;;;;;;7.38;6.45;;;25.50;99.90;;;;;;5018381;28;20222;-80
2023/06/16 12:27:24;;;;;;;7.55;6.28;;;25.40;99.90;;;;;;5014573;28;20215;-79
2023/06/16 12:29:56;;;;;;;6.88;5.90;;;25.70;99.90;;;;;;5014799;28;20216;-79
2023/06/16 12:32:30;;;;;;;7.15;5.90;;;25.90;99.90;;;;;;5022485;28;20204;-79
2023/06/16 12:34:57;;;;;;;10.38;6.30;;;25.90;99.90;;;;;;5022571;28;20215;-80
2023/06/16 12:37:26;;;;;;;6.65;5.97;;;25.60;1.00;;;;;;5039478;28;20283;-80
2023/06/16 12:40:06;;;;;;;7.75;6.25;;;25.90;1.00;;;;;;5029313;28;20206;-80
2023/06/16 12:42:35;;;;;;;9.27;7.00;;;26.40;99.90;;;;;;5032603;28;20221;-80
2023/06/16 12:45:03;;;;;;;7.40;6.22;;;26.70;99.90;;;;;;5031604;28;20679;-79
2023/06/16 12:47:31;;;;;;;9.57;6.93;;;26.60;1.00;;;;;;5022034;28;20294;-79